Time;durP1;ratioP1;P1;durP2;ratioP2;P2;SDS_P1;SDS_P2;PMS_P1;PMS_P2;Temp;Humidity;BMP_temperature;BMP_pressure;BME280_temperature;BME280_humidity;BME280_pressure;Samples;Min_cycle;Max_cycle;Signal;HPM_P1;HPM_P2
2023/05/02 00:02:08;;;;;;;;;;;19.90;44.90;;;;;;4999278;28;20263;-53
2023/05/02 00:04:33;;;;;;;;;;;19.90;44.90;;;;;;5000493;28;19918;-53
2023/05/02 00:06:59;;;;;;;;;;;19.90;45.00;;;;;;5000284;28;19923;-56
2023/05/02 00:09:24;;;;;;;;;;;19.90;45.10;;;;;;5001901;28;20329;-53
2023/05/02 00:11:50;;;;;;;;;;;19.90;45.10;;;;;;5002507;28;19968;-54
2023/05/02 00:14:15;;;;;;;;;;;19.90;45.20;;;;;;4997183;28;19996;-55
2023/05/02 00:16:41;;;;;;;;;;;19.90;45.40;;;;;;5001742;28;19917;-53
2023/05/02 00:19:06;;;;;;;;;;;19.90;45.50;;;;;;4995970;28;20333;-53
2023/05/02 00:21:32;;;;;;;;;;;19.90;45.50;;;;;;4999767;28;19977;-52
2023/05/02 00:23:58;;;;;;;;;;;19.90;45.70;;;;;;5001739;28;19925;-52
2023/05/02 00:26:24;;;;;;;;;;;19.90;45.60;;;;;;4995908;28;19961;-53
2023/05/02 00:28:49;;;;;;;;;;;19.80;45.70;;;;;;4999950;28;20385;-52
2023/05/02 00:31:15;;;;;;;;;;;19.80;45.90;;;;;;5000426;28;19913;-53
2023/05/02 00:33:41;;;;;;;;;;;19.90;45.90;;;;;;4997812;28;20036;-53
2023/05/02 00:36:15;;;;;;;;;;;19.90;46.10;;;;;;5002696;28;19914;-55
2023/05/02 00:38:41;;;;;;;;;;;19.80;46.10;;;;;;5003631;28;19926;-55
2023/05/02 00:41:06;;;;;;;;;;;19.90;46.10;;;;;;5031061;28;19980;-55
2023/05/02 00:43:32;;;;;;;;;;;19.90;46.10;;;;;;4999122;28;19932;-55
2023/05/02 00:45:57;;;;;;;;;;;19.90;46.10;;;;;;4994203;28;19976;-55
2023/05/02 00:48:23;;;;;;;;;;;19.90;46.20;;;;;;4999838;28;19940;-55
2023/05/02 00:50:49;;;;;;;;;;;19.90;46.40;;;;;;4994778;28;19924;-55
2023/05/02 00:53:14;;;;;;;;;;;19.90;46.60;;;;;;4996961;28;20021;-55
2023/05/02 00:55:39;;;;;;;;;;;19.80;46.70;;;;;;5001099;28;20286;-55
2023/05/02 00:58:06;;;;;;;;;;;19.80;46.70;;;;;;5002004;28;20264;-54
2023/05/02 01:00:55;;;;;;;;;;;19.80;46.60;;;;;;5032125;28;19921;-55
2023/05/02 01:03:30;;;;;;;;;;;19.80;46.70;;;;;;4995328;28;19927;-55
2023/05/02 01:06:03;;;;;;;;;;;19.90;47.00;;;;;;4998955;28;19953;-54
2023/05/02 01:08:39;;;;;;;;;;;19.80;47.20;;;;;;5003319;28;19920;-55
2023/05/02 01:11:08;;;;;;;;;;;19.70;47.10;;;;;;4997602;28;20402;-55
2023/05/02 01:13:33;;;;;;;;;;;19.70;47.50;;;;;;4998689;28;19922;-55
2023/05/02 01:16:00;;;;;;;;;;;19.80;47.50;;;;;;5001798;28;19920;-55
2023/05/02 01:18:26;;;;;;;;;;;19.80;47.40;;;;;;5000701;28;19975;-55
2023/05/02 01:20:54;;;;;;;;;;;19.80;47.40;;;;;;5001112;28;20436;-55
2023/05/02 01:23:29;;;;;;;;;;;19.90;48.20;;;;;;5003436;28;19925;-55
2023/05/02 01:26:01;;;;;;;;;;;20.10;47.20;;;;;;5003918;28;19918;-55
2023/05/02 01:28:45;;;;;;;;;;;20.30;46.90;;;;;;5005875;28;19937;-55
2023/05/02 01:31:10;;;;;;;;;;;20.40;46.60;;;;;;5004903;28;19918;-55
2023/05/02 01:33:36;;;;;;;;;;;20.60;46.30;;;;;;4997984;28;19918;-55
2023/05/02 01:36:01;;;;;;;;;;;20.70;46.30;;;;;;5000564;28;20414;-55
2023/05/02 01:38:27;;;;;;;;;;;20.70;46.10;;;;;;5001651;28;20313;-55
2023/05/02 01:40:52;;;;;;;;;;;20.70;46.20;;;;;;5005267;28;19913;-55
2023/05/02 01:43:18;;;;;;;;;;;20.70;46.30;;;;;;5003464;28;19961;-55
2023/05/02 01:45:44;;;;;;;;;;;20.70;46.40;;;;;;5030971;28;19913;-55
2023/05/02 01:48:10;;;;;;;;;;;20.70;46.50;;;;;;5018816;28;19971;-55
2023/05/02 01:50:36;;;;;;;;;;;20.60;46.60;;;;;;5031714;28;19918;-55
2023/05/02 01:53:02;;;;;;;;;;;20.60;46.70;;;;;;5003682;28;20293;-55
2023/05/02 01:55:28;;;;;;;;;;;20.60;46.90;;;;;;5000963;28;20438;-55
2023/05/02 01:57:53;;;;;;;;;;;20.50;47.10;;;;;;5001396;28;19989;-55
2023/05/02 02:00:19;;;;;;;;;;;20.50;47.10;;;;;;5035008;28;19920;-55
2023/05/02 02:02:45;;;;;;;;;;;20.50;47.30;;;;;;5036316;28;19921;-55
2023/05/02 02:05:11;;;;;;;;;;;20.40;47.40;;;;;;5004022;28;20404;-55
2023/05/02 02:07:36;;;;;;;;;;;20.40;47.60;;;;;;5002487;28;19913;-55
2023/05/02 02:10:01;;;;;;;;;;;20.30;47.70;;;;;;5002043;28;20298;-55
2023/05/02 02:12:27;;;;;;;;;;;20.30;47.90;;;;;;4997722;28;19930;-55
2023/05/02 02:15:00;;;;;;;;;;;20.30;48.00;;;;;;5004938;28;19921;-55
2023/05/02 02:17:31;;;;;;;;;;;20.20;48.10;;;;;;5010449;28;19968;-55
2023/05/02 02:19:56;;;;;;;;;;;20.20;48.20;;;;;;5002132;28;19960;-55
2023/05/02 02:22:22;;;;;;;;;;;20.20;48.30;;;;;;5004058;28;20345;-55
2023/05/02 02:24:47;;;;;;;;;;;20.20;48.60;;;;;;4998092;28;19921;-55
2023/05/02 02:27:13;;;;;;;;;;;20.20;48.50;;;;;;5001539;28;19917;-55
2023/05/02 02:29:38;;;;;;;;;;;20.20;48.40;;;;;;5015530;28;19992;-55
2023/05/02 02:32:04;;;;;;;;;;;20.10;48.60;;;;;;5005319;28;19923;-55
2023/05/02 02:34:29;;;;;;;;;;;20.20;48.60;;;;;;5002317;28;20344;-54
2023/05/02 02:36:57;;;;;;;;;;;20.20;48.70;;;;;;5001317;28;19984;-55
2023/05/02 02:39:42;;;;;;;;;;;20.20;48.70;;;;;;5001666;28;19922;-54
2023/05/02 02:42:23;;;;;;;;;;;20.20;48.50;;;;;;4998228;28;19972;-55
2023/05/02 02:45:24;;;;;;;;;;;20.30;48.40;;;;;;5001642;28;19920;-55
2023/05/02 02:47:53;;;;;;;;;;;20.30;48.30;;;;;;5005082;28;19929;-54
2023/05/02 02:50:33;;;;;;;;;;;20.30;48.10;;;;;;5029877;28;20400;-53
2023/05/02 02:53:00;;;;;;;;;;;20.40;48.10;;;;;;5002672;28;20862;-54
2023/05/02 02:55:29;;;;;;;;;;;20.40;47.90;;;;;;5000964;28;19914;-54
2023/05/02 02:58:27;;;;;;;;;;;20.40;47.90;;;;;;5002498;28;20418;-54
2023/05/02 03:00:52;;;;;;;;;;;20.40;47.80;;;;;;5028718;28;19913;-53
2023/05/02 03:03:18;;;;;;;;;;;20.40;47.80;;;;;;5031513;28;19917;-53
2023/05/02 03:05:43;;;;;;;;;;;20.40;47.70;;;;;;4998665;28;19967;-53
2023/05/02 03:08:09;;;;;;;;;;;20.40;47.80;;;;;;5002565;28;19913;-54
2023/05/02 03:10:34;;;;;;;;;;;20.40;47.90;;;;;;4998926;28;19918;-54
2023/05/02 03:13:00;;;;;;;;;;;20.40;47.80;;;;;;4997530;28;20008;-53
2023/05/02 03:15:44;;;;;;;;;;;20.30;47.70;;;;;;4999123;28;19982;-53
2023/05/02 03:18:09;;;;;;;;;;;20.30;47.60;;;;;;4993975;28;20398;-53
2023/05/02 03:20:35;;;;;;;;;;;20.30;47.70;;;;;;4998917;28;19918;-54
2023/05/02 03:23:00;;;;;;;;;;;20.30;47.70;;;;;;4998693;28;19957;-53
2023/05/02 03:25:26;;;;;;;;;;;20.20;47.50;;;;;;5002442;28;20396;-54
2023/05/02 03:27:52;;;;;;;;;;;20.20;47.60;;;;;;4997138;28;20382;-53
2023/05/02 03:30:18;;;;;;;;;;;20.20;47.50;;;;;;4999605;28;19921;-53
2023/05/02 03:32:44;;;;;;;;;;;20.10;47.50;;;;;;5000271;28;20386;-53
2023/05/02 03:35:09;;;;;;;;;;;20.10;47.50;;;;;;5002006;28;19914;-53
2023/05/02 03:37:34;;;;;;;;;;;20.10;47.40;;;;;;5002021;28;19921;-53
2023/05/02 03:40:00;;;;;;;;;;;20.00;47.30;;;;;;4998220;28;20008;-53
2023/05/02 03:42:25;;;;;;;;;;;20.00;47.30;;;;;;4999409;28;19921;-54
2023/05/02 03:44:52;;;;;;;;;;;20.00;47.30;;;;;;5029735;28;19922;-54
2023/05/02 03:47:18;;;;;;;;;;;20.00;47.20;;;;;;5002858;28;19914;-54
2023/05/02 03:49:43;;;;;;;;;;;20.00;47.10;;;;;;4994330;28;20017;-53
2023/05/02 03:52:08;;;;;;;;;;;20.00;47.00;;;;;;5000151;28;19921;-53
2023/05/02 03:54:34;;;;;;;;;;;20.10;47.10;;;;;;5000736;28;19921;-53
2023/05/02 03:57:00;;;;;;;;;;;20.10;46.90;;;;;;5000286;28;20430;-54
2023/05/02 03:59:26;;;;;;;;;;;20.10;46.90;;;;;;4998952;28;20001;-53
2023/05/02 04:01:51;;;;;;;;;;;20.20;46.70;;;;;;4999055;28;19918;-54
2023/05/02 04:04:17;;;;;;;;;;;20.20;46.40;;;;;;5015165;28;19918;-53
2023/05/02 04:06:42;;;;;;;;;;;20.20;46.20;;;;;;5000773;28;19913;-54
2023/05/02 04:09:08;;;;;;;;;;;20.20;46.10;;;;;;5000113;28;19972;-54
2023/05/02 04:11:33;;;;;;;;;;;20.20;46.20;;;;;;5001503;28;19972;-53
2023/05/02 04:13:58;;;;;;;;;;;20.20;46.00;;;;;;5000957;28;19914;-53
2023/05/02 04:16:24;;;;;;;;;;;20.20;45.90;;;;;;5000883;28;19924;-55
2023/05/02 04:18:50;;;;;;;;;;;20.20;45.90;;;;;;5002399;28;20236;-53
2023/05/02 04:21:15;;;;;;;;;;;20.30;45.80;;;;;;4993452;28;19922;-53
2023/05/02 04:23:40;;;;;;;;;;;20.30;45.60;;;;;;4998921;28;20004;-54
2023/05/02 04:26:06;;;;;;;;;;;20.20;45.30;;;;;;4999786;28;19914;-54
2023/05/02 04:28:31;;;;;;;;;;;20.20;45.40;;;;;;5000454;28;19913;-53
2023/05/02 04:30:57;;;;;;;;;;;20.20;45.20;;;;;;4995072;28;20521;-54
2023/05/02 04:33:23;;;;;;;;;;;20.20;45.10;;;;;;4999005;28;20483;-54
2023/05/02 04:35:49;;;;;;;;;;;20.20;44.90;;;;;;4993475;28;19957;-54
2023/05/02 04:38:14;;;;;;;;;;;20.10;44.80;;;;;;4999719;28;19962;-54
2023/05/02 04:40:40;;;;;;;;;;;20.10;44.60;;;;;;4999990;28;19922;-54
2023/05/02 04:43:05;;;;;;;;;;;20.00;44.50;;;;;;5006995;28;19929;-54
2023/05/02 04:45:31;;;;;;;;;;;20.00;44.40;;;;;;5000239;28;19914;-54
2023/05/02 04:47:56;;;;;;;;;;;20.00;44.40;;;;;;4995946;28;19972;-54
2023/05/02 04:50:22;;;;;;;;;;;20.00;44.50;;;;;;5001761;28;20004;-54
2023/05/02 04:52:47;;;;;;;;;;;20.00;44.50;;;;;;5003721;28;19914;-55
2023/05/02 04:55:13;;;;;;;;;;;20.00;44.40;;;;;;4997558;28;19983;-54
2023/05/02 04:57:38;;;;;;;;;;;20.00;44.40;;;;;;5001975;28;19914;-54
2023/05/02 05:00:04;;;;;;;;;;;20.00;44.30;;;;;;5001630;28;19913;-54
2023/05/02 05:02:30;;;;;;;;;;;20.00;44.00;;;;;;5005269;28;19921;-54
2023/05/02 05:04:55;;;;;;;;;;;20.00;43.90;;;;;;5035223;28;20055;-54
2023/05/02 05:07:21;;;;;;;;;;;20.00;43.80;;;;;;5005420;28;19924;-54
2023/05/02 05:09:46;;;;;;;;;;;20.10;43.60;;;;;;5028339;28;19929;-54
2023/05/02 05:12:12;;;;;;;;;;;20.10;43.60;;;;;;5038538;28;19922;-54
2023/05/02 05:14:37;;;;;;;;;;;20.10;43.50;;;;;;5002942;28;19964;-54
2023/05/02 05:17:03;;;;;;;;;;;20.10;43.20;;;;;;5003573;28;19967;-54
2023/05/02 05:19:28;;;;;;;;;;;20.20;43.20;;;;;;4999197;28;19913;-54
2023/05/02 05:21:53;;;;;;;;;;;20.20;43.00;;;;;;5014667;28;19988;-54
2023/05/02 05:24:19;;;;;;;;;;;20.20;42.90;;;;;;4999755;28;20043;-54
2023/05/02 05:26:44;;;;;;;;;;;20.30;43.00;;;;;;5002810;28;20016;-54
2023/05/02 05:29:10;;;;;;;;;;;20.30;42.60;;;;;;5004742;28;19921;-54
2023/05/02 05:31:36;;;;;;;;;;;20.30;42.70;;;;;;5002199;28;19922;-54
2023/05/02 05:34:01;;;;;;;;;;;20.30;42.60;;;;;;5001525;28;20366;-54
2023/05/02 05:36:27;;;;;;;;;;;20.30;42.40;;;;;;5003552;28;20007;-54
2023/05/02 05:38:52;;;;;;;;;;;20.30;42.40;;;;;;5001843;28;20446;-54
2023/05/02 05:41:18;;;;;;;;;;;20.30;42.30;;;;;;5000257;28;20294;-54
2023/05/02 05:43:43;;;;;;;;;;;20.30;42.20;;;;;;4997871;28;19917;-54
2023/05/02 05:46:09;;;;;;;;;;;20.20;42.10;;;;;;5001468;28;19922;-54
2023/05/02 05:48:34;;;;;;;;;;;20.20;42.10;;;;;;5003425;28;20309;-54
2023/05/02 05:51:04;;;;;;;;;;;20.20;42.20;;;;;;5000415;28;20378;-54
2023/05/02 05:53:29;;;;;;;;;;;20.20;42.20;;;;;;5003084;28;19949;-54
2023/05/02 05:55:55;;;;;;;;;;;20.20;42.10;;;;;;5005261;28;20363;-54
2023/05/02 05:58:20;;;;;;;;;;;20.20;42.20;;;;;;5002360;28;19953;-53
2023/05/02 06:00:46;;;;;;;;;;;20.10;42.10;;;;;;4997243;28;19918;-54
2023/05/02 06:03:11;;;;;;;;;;;20.10;42.10;;;;;;5001972;28;20431;-54
2023/05/02 06:05:37;;;;;;;;;;;20.10;42.10;;;;;;4999055;28;19920;-54
2023/05/02 06:08:02;;;;;;;;;;;20.10;41.90;;;;;;4999368;28;20286;-54
2023/05/02 06:10:28;;;;;;;;;;;20.00;42.00;;;;;;5003734;28;19959;-54
2023/05/02 06:12:53;;;;;;;;;;;20.00;42.00;;;;;;5015307;28;19921;-53
2023/05/02 06:15:18;;;;;;;;;;;20.00;41.90;;;;;;5002295;28;19956;-54
2023/05/02 06:17:44;;;;;;;;;;;20.00;41.90;;;;;;5002509;28;19921;-54
2023/05/02 06:20:10;;;;;;;;;;;20.00;41.90;;;;;;4999410;28;19921;-54
2023/05/02 06:22:35;;;;;;;;;;;19.90;41.90;;;;;;5000483;28;19932;-54
2023/05/02 06:25:01;;;;;;;;;;;19.90;41.80;;;;;;5001892;28;19913;-54
2023/05/02 06:27:26;;;;;;;;;;;19.90;42.40;;;;;;5000918;28;19922;-54
2023/05/02 06:29:52;;;;;;;;;;;19.90;41.50;;;;;;4994985;28;19914;-54
2023/05/02 06:32:17;;;;;;;;;;;19.90;41.40;;;;;;4999293;28;19921;-54
2023/05/02 06:34:43;;;;;;;;;;;20.00;41.30;;;;;;4996265;28;20008;-54
2023/05/02 06:37:08;;;;;;;;;;;20.00;41.20;;;;;;4993135;28;20445;-54
2023/05/02 06:39:33;;;;;;;;;;;20.00;41.10;;;;;;4998356;28;19914;-54
2023/05/02 06:41:59;;;;;;;;;;;20.00;40.90;;;;;;4995037;28;19941;-54
2023/05/02 06:44:24;;;;;;;;;;;20.00;41.40;;;;;;4996607;28;20407;-54
2023/05/02 06:46:50;;;;;;;;;;;20.10;40.80;;;;;;5002600;28;19967;-54
2023/05/02 06:49:15;;;;;;;;;;;20.10;40.70;;;;;;4989566;28;19918;-54
2023/05/02 06:51:41;;;;;;;;;;;20.10;40.60;;;;;;5005451;28;19921;-53
2023/05/02 06:54:07;;;;;;;;;;;20.10;40.40;;;;;;5002715;28;19997;-54
2023/05/02 06:56:33;;;;;;;;;;;20.10;40.40;;;;;;4995700;28;20005;-54
2023/05/02 06:58:58;;;;;;;;;;;20.20;40.20;;;;;;4993143;28;20456;-54
2023/05/02 07:01:25;;;;;;;;;;;20.10;40.20;;;;;;4992207;28;19980;-54
2023/05/02 07:03:51;;;;;;;;;;;20.10;40.50;;;;;;4995328;28;19921;-54
2023/05/02 07:06:16;;;;;;;;;;;20.10;40.70;;;;;;4998783;28;20531;-54
2023/05/02 07:08:42;;;;;;;;;;;20.10;40.60;;;;;;4995365;28;19918;-54
2023/05/02 07:11:07;;;;;;;;;;;20.30;40.40;;;;;;4991301;28;20012;-54
2023/05/02 07:13:32;;;;;;;;;;;20.60;40.00;;;;;;4993765;28;20445;-54
2023/05/02 07:15:58;;;;;;;;;;;20.90;39.60;;;;;;4975916;28;20441;-54
2023/05/02 07:18:23;;;;;;;;;;;21.30;39.00;;;;;;4990192;28;19921;-54
2023/05/02 07:20:49;;;;;;;;;;;21.40;38.90;;;;;;4985431;28;19973;-54
2023/05/02 07:23:14;;;;;;;;;;;21.30;39.00;;;;;;4988198;28;20374;-55
2023/05/02 07:25:40;;;;;;;;;;;21.20;39.10;;;;;;4987896;28;19918;-55
2023/05/02 07:28:05;;;;;;;;;;;21.30;39.00;;;;;;4985107;28;19929;-54
2023/05/02 07:30:31;;;;;;;;;;;21.30;38.80;;;;;;5004721;28;19944;-54
2023/05/02 07:32:56;;;;;;;;;;;21.30;38.70;;;;;;4993344;28;19925;-55
2023/05/02 07:35:22;;;;;;;;;;;21.40;38.60;;;;;;4992941;28;20439;-54
2023/05/02 07:37:47;;;;;;;;;;;21.40;38.40;;;;;;4992344;28;19910;-54
2023/05/02 07:40:13;;;;;;;;;;;21.50;38.90;;;;;;4986477;28;19914;-54
2023/05/02 07:42:40;;;;;;;;;;;21.70;38.10;;;;;;4977904;28;20379;-54
2023/05/02 07:45:06;;;;;;;;;;;21.80;37.70;;;;;;4989278;28;19922;-54
2023/05/02 07:47:32;;;;;;;;;;;22.20;37.30;;;;;;4991779;28;20029;-54
2023/05/02 07:49:57;;;;;;;;;;;22.30;37.00;;;;;;4992750;28;19920;-54
2023/05/02 07:52:22;;;;;;;;;;;22.40;36.70;;;;;;4987680;28;19979;-54
2023/05/02 07:54:48;;;;;;;;;;;22.50;36.70;;;;;;4997342;28;19993;-54
2023/05/02 07:57:14;;;;;;;;;;;22.40;36.80;;;;;;4986527;28;19914;-54
2023/05/02 07:59:39;;;;;;;;;;;22.20;36.90;;;;;;4990621;28;19959;-54
2023/05/02 08:02:05;;;;;;;;;;;22.10;37.20;;;;;;5023911;28;20061;-54
2023/05/02 08:04:31;;;;;;;;;;;21.90;37.40;;;;;;4987439;28;19922;-54
2023/05/02 08:06:56;;;;;;;;;;;21.80;37.60;;;;;;4987485;28;20338;-54
2023/05/02 08:09:21;;;;;;;;;;;21.70;37.60;;;;;;4990905;28;20063;-54
2023/05/02 08:11:47;;;;;;;;;;;21.80;37.50;;;;;;4984155;28;19933;-54
2023/05/02 08:14:13;;;;;;;;;;;21.90;37.30;;;;;;4985367;28;19960;-54
2023/05/02 08:16:41;;;;;;;;;;;22.10;37.10;;;;;;5022213;28;21290;-54
2023/05/02 08:19:06;;;;;;;;;;;22.10;37.00;;;;;;4990762;28;19984;-54
2023/05/02 08:21:32;;;;;;;;;;;22.20;36.70;;;;;;4993062;28;19928;-54
2023/05/02 08:23:57;;;;;;;;;;;22.30;36.40;;;;;;4989268;28;20441;-54
2023/05/02 08:26:23;;;;;;;;;;;22.30;36.50;;;;;;4993438;28;19922;-54
2023/05/02 08:28:50;;;;;;;;;;;22.30;36.30;;;;;;4991782;28;19920;-54
2023/05/02 08:31:15;;;;;;;;;;;22.30;36.10;;;;;;5001533;28;19914;-54
2023/05/02 08:33:41;;;;;;;;;;;22.30;36.00;;;;;;4988748;28;19918;-55
2023/05/02 08:36:10;;;;;;;;;;;22.40;35.90;;;;;;4992774;28;19920;-55
2023/05/02 08:38:36;;;;;;;;;;;22.30;36.00;;;;;;4988814;28;19928;-55
2023/05/02 08:41:01;;;;;;;;;;;22.20;36.20;;;;;;4992781;28;19918;-54
2023/05/02 08:43:27;;;;;;;;;;;22.10;36.20;;;;;;4991946;28;19997;-54
2023/05/02 08:45:52;;;;;;;;;;;22.10;36.40;;;;;;4988722;28;19914;-53
2023/05/02 08:48:18;;;;;;;;;;;22.00;36.30;;;;;;5008123;28;19913;-53
2023/05/02 08:50:45;;;;;;;;;;;22.00;36.40;;;;;;4992306;28;20005;-54
2023/05/02 08:53:11;;;;;;;;;;;22.10;36.30;;;;;;4993126;28;20370;-54
2023/05/02 08:55:39;;;;;;;;;;;22.10;36.20;;;;;;4986813;28;19913;-55
2023/05/02 08:58:05;;;;;;;;;;;22.10;36.30;;;;;;4989927;28;19922;-54
2023/05/02 09:00:37;;;;;;;;;;;22.00;36.40;;;;;;4989594;28;19924;-54
2023/05/02 09:03:07;;;;;;;;;;;22.00;36.60;;;;;;5000272;28;19957;-55
2023/05/02 09:05:39;;;;;;;;;;;21.90;36.50;;;;;;5026196;28;20293;-55
2023/05/02 09:08:05;;;;;;;;;;;21.90;36.50;;;;;;5028626;28;19984;-54
2023/05/02 09:10:30;;;;;;;;;;;22.10;37.00;;;;;;4994070;28;19917;-54
2023/05/02 09:12:56;;;;;;;;;;;22.10;36.20;;;;;;4994267;28;19965;-55
2023/05/02 09:15:21;;;;;;;;;;;22.20;36.00;;;;;;4994596;28;19914;-53
2023/05/02 09:17:47;;;;;;;;;;;22.30;35.90;;;;;;4994734;28;20294;-54
2023/05/02 09:20:14;;;;;;;;;;;22.20;35.90;;;;;;5000059;28;19920;-55
2023/05/02 09:22:49;;;;;;;;;;;22.00;36.30;;;;;;4995881;28;20055;-54
2023/05/02 09:25:15;;;;;;;;;;;21.80;36.60;;;;;;4999921;28;19928;-54
2023/05/02 09:28:00;;;;;;;;;;;21.70;36.80;;;;;;4998846;28;19917;-54
2023/05/02 09:30:26;;;;;;;;;;;21.70;36.80;;;;;;4993540;28;19945;-54
2023/05/02 09:32:53;;;;;;;;;;;21.70;36.70;;;;;;4990034;28;20005;-55
2023/05/02 09:35:22;;;;;;;;;;;21.70;36.70;;;;;;4988442;28;20401;-54
2023/05/02 09:37:51;;;;;;;;;;;21.70;36.70;;;;;;5002413;28;20358;-54
2023/05/02 09:40:17;;;;;;;;;;;21.80;36.80;;;;;;4991230;28;19920;-54
2023/05/02 09:42:42;;;;;;;;;;;21.90;36.70;;;;;;4992262;28;19921;-54
2023/05/02 09:45:08;;;;;;;;;;;21.90;36.50;;;;;;4982650;28;19918;-55
2023/05/02 09:47:33;;;;;;;;;;;22.00;36.60;;;;;;4990437;28;20394;-55
2023/05/02 09:49:59;;;;;;;;;;;21.90;36.60;;;;;;4991822;28;20330;-54
2023/05/02 09:52:24;;;;;;;;;;;21.90;36.50;;;;;;4988708;28;20640;-54
2023/05/02 09:54:51;;;;;;;;;;;21.90;36.60;;;;;;4991766;28;20877;-54
2023/05/02 09:57:16;;;;;;;;;;;22.00;36.50;;;;;;4986996;28;19967;-54
2023/05/02 10:00:02;;;;;;;;;;;22.00;36.30;;;;;;4990191;28;20282;-54
2023/05/02 10:02:29;;;;;;;;;;;22.10;36.10;;;;;;4985792;28;20275;-54
2023/05/02 10:04:54;;;;;;;;;;;22.30;36.10;;;;;;4992663;28;19917;-54
2023/05/02 10:07:20;;;;;;;;;;;22.30;36.00;;;;;;5025782;28;20377;-54
2023/05/02 10:09:45;;;;;;;;;;;22.20;35.80;;;;;;4988014;28;19922;-54
2023/05/02 10:12:13;;;;;;;;;;;22.10;36.10;;;;;;4986267;28;19969;-54
2023/05/02 10:14:38;;;;;;;;;;;21.90;36.30;;;;;;4988237;28;19955;-54
2023/05/02 10:17:05;;;;;;;;;;;21.80;36.60;;;;;;4984337;28;19932;-54
2023/05/02 10:19:33;;;;;;;;;;;21.80;36.70;;;;;;4995971;28;20382;-54
2023/05/02 10:21:58;;;;;;;;;;;21.90;36.50;;;;;;5003013;28;19917;-54
2023/05/02 10:24:24;;;;;;;;;;;22.10;36.50;;;;;;4994220;28;20309;-54
2023/05/02 10:26:49;;;;;;;;;;;22.20;36.30;;;;;;4986148;28;20294;-54
2023/05/02 10:29:15;;;;;;;;;;;22.30;36.10;;;;;;4992276;28;19924;-55
2023/05/02 10:31:41;;;;;;;;;;;22.50;35.60;;;;;;4994036;28;19918;-54
2023/05/02 10:34:09;;;;;;;;;;;22.60;35.50;;;;;;5014366;28;19917;-54
2023/05/02 10:36:35;;;;;;;;;;;22.70;35.10;;;;;;4992954;28;19913;-54
2023/05/02 10:39:00;;;;;;;;;;;22.70;35.20;;;;;;4985624;28;19918;-53
2023/05/02 10:41:26;;;;;;;;;;;22.90;35.10;;;;;;4998260;28;19929;-54
2023/05/02 10:43:51;;;;;;;;;;;22.80;35.10;;;;;;4987930;28;19933;-54
2023/05/02 10:46:32;;;;;;;;;;;22.90;35.10;;;;;;5005520;28;19914;-54
2023/05/02 10:49:07;;;;;;;;;;;23.20;35.10;;;;;;4997660;28;19936;-54
2023/05/02 10:51:33;;;;;;;;;;;23.60;34.70;;;;;;4991911;28;19957;-54
2023/05/02 10:54:17;;;;;;;;;;;23.60;34.80;;;;;;4987717;28;20641;-55
2023/05/02 10:56:59;;;;;;;;;;;23.60;35.00;;;;;;4995856;28;19914;-55
2023/05/02 10:59:27;;;;;;;;;;;23.50;35.20;;;;;;4993184;28;19918;-54
2023/05/02 11:01:52;;;;;;;;;;;23.50;35.20;;;;;;4994231;28;20035;-54
2023/05/02 11:04:18;;;;;;;;;;;23.60;35.10;;;;;;4996137;28;20402;-54
2023/05/02 11:07:12;;;;;;;;;;;23.80;34.90;;;;;;4991581;28;19997;-55
2023/05/02 11:09:38;;;;;;;;;;;23.80;34.60;;;;;;4991507;28;19918;-54
2023/05/02 11:12:03;;;;;;;;;;;23.80;34.80;;;;;;4981657;28;19926;-55
2023/05/02 11:14:35;;;;;;;;;;;23.80;35.00;;;;;;4990483;28;19914;-55
2023/05/02 11:17:00;;;;;;;;;;;23.80;35.10;;;;;;4997553;28;20390;-54
2023/05/02 11:19:26;;;;;;;;;;;23.90;35.00;;;;;;4992371;28;19914;-55
2023/05/02 11:21:52;;;;;;;;;;;24.00;34.90;;;;;;4992219;28;19920;-54
2023/05/02 11:24:40;;;;;;;;;;;24.00;34.90;;;;;;5004725;28;20000;-55
2023/05/02 11:27:24;;;;;;;;;;;24.00;34.80;;;;;;4983915;28;20390;-55
2023/05/02 11:29:56;;;;;;;;;;;23.90;34.90;;;;;;4984145;28;19957;-55
2023/05/02 11:32:21;;;;;;;;;;;23.90;35.20;;;;;;4993735;28;19924;-55
2023/05/02 11:34:49;;;;;;;;;;;23.70;35.50;;;;;;4980090;28;20290;-54
2023/05/02 11:37:15;;;;;;;;;;;23.50;35.70;;;;;;4990274;28;20391;-55
2023/05/02 11:39:41;;;;;;;;;;;23.30;36.10;;;;;;4987550;28;20029;-55
2023/05/02 11:42:06;;;;;;;;;;;23.20;36.30;;;;;;4997395;28;19922;-55
2023/05/02 11:44:32;;;;;;;;;;;23.10;36.60;;;;;;4983527;28;19918;-54
2023/05/02 11:46:57;;;;;;;;;;;23.00;36.70;;;;;;4982942;28;20387;-54
2023/05/02 11:49:22;;;;;;;;;;;23.00;36.90;;;;;;4991647;28;19910;-54
2023/05/02 11:51:48;;;;;;;;;;;22.90;37.00;;;;;;4989613;28;19922;-54
2023/05/02 11:54:17;;;;;;;;;;;23.00;36.80;;;;;;5016594;28;19965;-54
2023/05/02 11:56:42;;;;;;;;;;;23.10;36.60;;;;;;5027692;28;20294;-54
2023/05/02 11:59:08;;;;;;;;;;;23.30;36.30;;;;;;4984903;28;19917;-55
2023/05/02 12:01:33;;;;;;;;;;;23.40;36.30;;;;;;4988968;28;19914;-55
2023/05/02 12:04:02;;;;;;;;;;;23.50;35.90;;;;;;4979069;28;19929;-54
2023/05/02 12:06:28;;;;;;;;;;;23.70;35.70;;;;;;4973683;28;19921;-54
2023/05/02 12:09:04;;;;;;;;;;;23.80;35.70;;;;;;4978051;28;19915;-54
2023/05/02 12:11:30;;;;;;;;;;;23.80;35.80;;;;;;4988460;28;20367;-54
2023/05/02 12:13:55;;;;;;;;;;;23.70;36.00;;;;;;4987343;28;19922;-55
2023/05/02 12:16:21;;;;;;;;;;;23.70;35.80;;;;;;4992834;28;19941;-54
2023/05/02 12:18:46;;;;;;;;;;;23.70;35.90;;;;;;5018847;28;19994;-54
2023/05/02 12:21:11;;;;;;;;;;;23.70;35.80;;;;;;4994570;28;19968;-53
2023/05/02 12:23:38;;;;;;;;;;;23.60;35.90;;;;;;4986698;28;20366;-54
2023/05/02 12:26:36;;;;;;;;;;;23.50;36.20;;;;;;5026616;28;19945;-54
2023/05/02 12:29:01;;;;;;;;;;;23.50;36.40;;;;;;5003963;28;19918;-54
2023/05/02 12:31:29;;;;;;;;;;;23.40;36.30;;;;;;4991838;28;19924;-55
2023/05/02 12:33:56;;;;;;;;;;;23.40;36.30;;;;;;5003194;28;20000;-54
2023/05/02 12:36:22;;;;;;;;;;;23.40;36.40;;;;;;4988399;28;19914;-52
2023/05/02 12:38:52;;;;;;;;;;;23.30;36.50;;;;;;5001652;28;20366;-53
2023/05/02 12:41:18;;;;;;;;;;;23.20;36.60;;;;;;4991573;28;20028;-55
2023/05/02 12:43:47;;;;;;;;;;;23.10;36.90;;;;;;4991082;28;19914;-54
2023/05/02 12:46:13;;;;;;;;;;;23.10;36.90;;;;;;4988680;28;19924;-53
2023/05/02 12:48:38;;;;;;;;;;;23.20;36.90;;;;;;4997810;28;20020;-53
2023/05/02 12:51:04;;;;;;;;;;;23.10;36.90;;;;;;4989161;28;19918;-54
2023/05/02 12:53:36;;;;;;;;;;;23.10;37.00;;;;;;4990016;28;20031;-53
2023/05/02 12:56:02;;;;;;;;;;;23.20;36.70;;;;;;4994130;28;19913;-53
2023/05/02 12:58:28;;;;;;;;;;;23.30;36.70;;;;;;5035031;28;20032;-54
2023/05/02 13:00:53;;;;;;;;;;;23.40;36.80;;;;;;5021766;28;19961;-53
2023/05/02 13:03:20;;;;;;;;;;;23.40;36.40;;;;;;4988122;28;20327;-53
2023/05/02 13:05:45;;;;;;;;;;;23.50;36.50;;;;;;4993083;28;19918;-54
2023/05/02 13:08:11;;;;;;;;;;;23.50;36.40;;;;;;5009360;28;20319;-53
2023/05/02 13:10:36;;;;;;;;;;;23.60;36.40;;;;;;4981928;28;20068;-54
2023/05/02 13:13:02;;;;;;;;;;;23.70;36.00;;;;;;4996782;28;19922;-54
2023/05/02 13:15:27;;;;;;;;;;;23.80;35.90;;;;;;4997906;28;20008;-54
2023/05/02 13:17:53;;;;;;;;;;;23.90;35.60;;;;;;4989887;28;19960;-53
2023/05/02 13:20:18;;;;;;;;;;;24.10;35.70;;;;;;4996428;28;20540;-54
2023/05/02 13:22:44;;;;;;;;;;;24.20;35.50;;;;;;4997880;28;20371;-53
2023/05/02 13:25:09;;;;;;;;;;;24.10;35.40;;;;;;4994976;28;19921;-54
2023/05/02 13:27:35;;;;;;;;;;;24.10;35.40;;;;;;4988880;28;19928;-53
2023/05/02 13:30:00;;;;;;;;;;;24.20;35.60;;;;;;4999653;28;20370;-54
2023/05/02 13:32:27;;;;;;;;;;;24.20;35.50;;;;;;5003846;28;19918;-53
2023/05/02 13:34:52;;;;;;;;;;;24.10;35.60;;;;;;5034536;28;20309;-53
2023/05/02 13:37:18;;;;;;;;;;;24.10;35.70;;;;;;4998046;28;19997;-54
2023/05/02 13:39:43;;;;;;;;;;;24.10;35.80;;;;;;4995817;28;20016;-53
2023/05/02 13:42:09;;;;;;;;;;;24.10;35.80;;;;;;4997062;28;19913;-55
2023/05/02 13:44:35;;;;;;;;;;;24.10;35.80;;;;;;4993376;28;19918;-54
2023/05/02 13:47:00;;;;;;;;;;;24.20;35.70;;;;;;4991815;28;21409;-53
2023/05/02 13:49:26;;;;;;;;;;;24.20;35.50;;;;;;4996189;28;20298;-53
2023/05/02 13:51:51;;;;;;;;;;;24.20;35.50;;;;;;5004964;28;19914;-53
2023/05/02 13:54:17;;;;;;;;;;;24.20;35.50;;;;;;4995315;28;19914;-53
2023/05/02 13:56:42;;;;;;;;;;;24.10;35.50;;;;;;5000012;28;19967;-54
2023/05/02 13:59:08;;;;;;;;;;;24.10;35.60;;;;;;4993185;28;20358;-53
2023/05/02 14:01:33;;;;;;;;;;;23.90;35.80;;;;;;4993741;28;19913;-54
2023/05/02 14:03:59;;;;;;;;;;;23.80;36.00;;;;;;4996620;28;19964;-54
2023/05/02 14:06:25;;;;;;;;;;;23.80;36.30;;;;;;5032504;28;19924;-53
2023/05/02 14:08:50;;;;;;;;;;;23.60;36.40;;;;;;5002638;28;19972;-52
2023/05/02 14:11:16;;;;;;;;;;;23.50;36.40;;;;;;4992636;28;19921;-53
2023/05/02 14:13:41;;;;;;;;;;;23.60;36.40;;;;;;4998283;28;20306;-54
2023/05/02 14:16:07;;;;;;;;;;;23.60;36.40;;;;;;4990829;28;19913;-53